Decoded Metar for KMCJ ( in _UNIDENTIFIED) (IATA:N/A) | Meteo·Mobile Aviation Weather
aviador You're here:

KMCJ Decoded Metar

in _UNIDENTIFIED
Report Time2018-12-19 05:15:00
UTC Time2018-12-19 05:16:31
Flight Rules vfr VFR
Wind040° at 06 kt
W.Rank040° ranks 22
Current wind is below 040° avg. (7.4)
Visibility9999 m
Phenomena:N/A
Clouds:Few 013 Hf
Few 055 Hf
Broken 070 Hf
Expected CloudBase > 1,200 ft AGL from Temp-Dew spread
Ceiling7,000 ft
Temp14°C (ISA -1)
Dew Point11°C (82% RH)
AAT12.2°C
QNH1015 hPa
Density Alt269 ft
Elevation226 ft
Report Wrong Elevation
Raw Report
KMCJ 190515Z AUTO 04006KT 10SM FEW013 FEW055 BKN070 14/11 A2998
RMK A01=

Extra information for KMCJ:More info

Metar Taf Metar & Taf Last 4 Metars F.Rules Stats Wind Profile Meteogram Temp Stats Metar ALERT Operation Metar Decoded Social comments